sensor_id;sensor_type;location;lat;lon;timestamp;temperature;humidity
14934;DHT22;7560;51.364;12.384;2022-08-19T00:03:41;20.30;99.90
14934;DHT22;7560;51.364;12.384;2022-08-19T00:08:43;20.20;99.90
14934;DHT22;7560;51.364;12.384;2022-08-19T00:13:45;20.20;99.90
14934;DHT22;7560;51.364;12.384;2022-08-19T00:18:50;20.20;99.90
14934;DHT22;7560;51.364;12.384;2022-08-19T00:23:52;20.20;99.90
14934;DHT22;7560;51.364;12.384;2022-08-19T00:28:55;20.30;99.90
14934;DHT22;7560;51.364;12.384;2022-08-19T00:33:57;20.30;99.90
14934;DHT22;7560;51.364;12.384;2022-08-19T00:38:58;20.30;99.90
14934;DHT22;7560;51.364;12.384;2022-08-19T00:44:05;20.40;99.90
14934;DHT22;7560;51.364;12.384;2022-08-19T00:49:14;20.40;99.90
14934;DHT22;7560;51.364;12.384;2022-08-19T00:54:19;20.40;99.90
14934;DHT22;7560;51.364;12.384;2022-08-19T00:59:36;20.30;99.90
14934;DHT22;7560;51.364;12.384;2022-08-19T01:05:06;20.20;99.90
14934;DHT22;7560;51.364;12.384;2022-08-19T01:10:14;20.10;99.90
14934;DHT22;7560;51.364;12.384;2022-08-19T01:15:19;20.00;99.90
14934;DHT22;7560;51.364;12.384;2022-08-19T01:20:23;20.00;99.90
14934;DHT22;7560;51.364;12.384;2022-08-19T01:25:40;19.90;99.90
14934;DHT22;7560;51.364;12.384;2022-08-19T01:30:43;20.00;99.90
14934;DHT22;7560;51.364;12.384;2022-08-19T01:35:51;19.90;99.90
14934;DHT22;7560;51.364;12.384;2022-08-19T01:40:54;19.90;99.90
14934;DHT22;7560;51.364;12.384;2022-08-19T01:45:56;19.90;99.90
14934;DHT22;7560;51.364;12.384;2022-08-19T01:50:58;19.90;99.90
14934;DHT22;7560;51.364;12.384;2022-08-19T01:56:00;19.80;99.90
14934;DHT22;7560;51.364;12.384;2022-08-19T02:01:03;19.80;99.90
14934;DHT22;7560;51.364;12.384;2022-08-19T02:06:06;19.80;99.90
14934;DHT22;7560;51.364;12.384;2022-08-19T02:11:07;19.80;99.90
14934;DHT22;7560;51.364;12.384;2022-08-19T02:16:09;19.80;99.90
14934;DHT22;7560;51.364;12.384;2022-08-19T02:21:11;19.80;99.90
14934;DHT22;7560;51.364;12.384;2022-08-19T02:26:16;19.80;99.90
14934;DHT22;7560;51.364;12.384;2022-08-19T02:31:20;19.80;99.90
14934;DHT22;7560;51.364;12.384;2022-08-19T02:36:26;19.80;99.90
14934;DHT22;7560;51.364;12.384;2022-08-19T02:41:32;19.90;99.90
14934;DHT22;7560;51.364;12.384;2022-08-19T02:46:34;19.90;99.90
14934;DHT22;7560;51.364;12.384;2022-08-19T02:51:43;19.90;99.90
14934;DHT22;7560;51.364;12.384;2022-08-19T02:56:45;19.90;99.90
14934;DHT22;7560;51.364;12.384;2022-08-19T03:01:48;19.90;99.90
14934;DHT22;7560;51.364;12.384;2022-08-19T03:06:49;19.90;99.90
14934;DHT22;7560;51.364;12.384;2022-08-19T03:11:51;19.90;99.90
14934;DHT22;7560;51.364;12.384;2022-08-19T03:16:53;20.00;99.90
14934;DHT22;7560;51.364;12.384;2022-08-19T03:21:55;20.00;99.90
14934;DHT22;7560;51.364;12.384;2022-08-19T03:26:57;20.00;99.90
14934;DHT22;7560;51.364;12.384;2022-08-19T03:32:02;20.00;99.90
14934;DHT22;7560;51.364;12.384;2022-08-19T03:37:10;20.10;99.90
14934;DHT22;7560;51.364;12.384;2022-08-19T03:42:13;20.10;99.90
14934;DHT22;7560;51.364;12.384;2022-08-19T03:47:35;20.10;99.90
14934;DHT22;7560;51.364;12.384;2022-08-19T03:52:39;20.20;99.90
14934;DHT22;7560;51.364;12.384;2022-08-19T03:57:47;20.20;99.90
14934;DHT22;7560;51.364;12.384;2022-08-19T04:02:49;20.10;99.90
14934;DHT22;7560;51.364;12.384;2022-08-19T04:08:01;20.10;99.90
14934;DHT22;7560;51.364;12.384;2022-08-19T04:13:04;20.10;99.90
14934;DHT22;7560;51.364;12.384;2022-08-19T04:18:10;20.10;99.90
14934;DHT22;7560;51.364;12.384;2022-08-19T04:23:13;20.10;99.90
14934;DHT22;7560;51.364;12.384;2022-08-19T04:28:15;20.20;99.90
14934;DHT22;7560;51.364;12.384;2022-08-19T04:33:20;20.20;99.90
14934;DHT22;7560;51.364;12.384;2022-08-19T04:38:27;20.30;99.90
14934;DHT22;7560;51.364;12.384;2022-08-19T04:43:30;20.20;99.90
14934;DHT22;7560;51.364;12.384;2022-08-19T04:48:32;20.20;99.90
14934;DHT22;7560;51.364;12.384;2022-08-19T04:53:37;20.20;99.90
14934;DHT22;7560;51.364;12.384;2022-08-19T04:58:40;20.30;99.90
14934;DHT22;7560;51.364;12.384;2022-08-19T05:03:45;20.50;99.90
14934;DHT22;7560;51.364;12.384;2022-08-19T05:08:47;20.60;99.90
14934;DHT22;7560;51.364;12.384;2022-08-19T05:13:50;20.50;99.90
14934;DHT22;7560;51.364;12.384;2022-08-19T05:18:52;20.60;99.90
14934;DHT22;7560;51.364;12.384;2022-08-19T05:24:14;20.40;99.90
14934;DHT22;7560;51.364;12.384;2022-08-19T05:29:18;20.30;99.90
14934;DHT22;7560;51.364;12.384;2022-08-19T05:34:24;20.40;99.90
14934;DHT22;7560;51.364;12.384;2022-08-19T05:39:29;20.50;99.90
14934;DHT22;7560;51.364;12.384;2022-08-19T05:44:32;20.40;99.90
14934;DHT22;7560;51.364;12.384;2022-08-19T05:49:35;20.50;99.90
14934;DHT22;7560;51.364;12.384;2022-08-19T05:54:39;20.60;99.90
14934;DHT22;7560;51.364;12.384;2022-08-19T05:59:44;20.60;99.90
14934;DHT22;7560;51.364;12.384;2022-08-19T06:04:47;20.70;99.90
14934;DHT22;7560;51.364;12.384;2022-08-19T06:09:50;20.60;99.90
14934;DHT22;7560;51.364;12.384;2022-08-19T06:15:10;20.50;99.90
14934;DHT22;7560;51.364;12.384;2022-08-19T06:20:14;20.70;99.90
14934;DHT22;7560;51.364;12.384;2022-08-19T06:25:16;20.70;99.90
14934;DHT22;7560;51.364;12.384;2022-08-19T06:30:18;20.70;99.90
14934;DHT22;7560;51.364;12.384;2022-08-19T06:35:20;20.60;99.90
14934;DHT22;7560;51.364;12.384;2022-08-19T06:40:22;20.60;99.90
14934;DHT22;7560;51.364;12.384;2022-08-19T06:45:24;20.50;99.90
14934;DHT22;7560;51.364;12.384;2022-08-19T06:50:39;20.50;99.90
14934;DHT22;7560;51.364;12.384;2022-08-19T06:55:41;20.50;99.90
14934;DHT22;7560;51.364;12.384;2022-08-19T07:00:43;20.50;99.90
14934;DHT22;7560;51.364;12.384;2022-08-19T07:05:45;20.40;99.90
14934;DHT22;7560;51.364;12.384;2022-08-19T07:10:47;20.50;99.90
14934;DHT22;7560;51.364;12.384;2022-08-19T07:15:50;20.40;99.90
14934;DHT22;7560;51.364;12.384;2022-08-19T07:21:03;20.40;99.90
14934;DHT22;7560;51.364;12.384;2022-08-19T07:26:14;20.50;99.90
14934;DHT22;7560;51.364;12.384;2022-08-19T07:31:18;20.50;99.90
14934;DHT22;7560;51.364;12.384;2022-08-19T07:36:26;20.50;99.90
14934;DHT22;7560;51.364;12.384;2022-08-19T07:41:35;20.40;99.90
14934;DHT22;7560;51.364;12.384;2022-08-19T07:46:40;20.50;99.90
14934;DHT22;7560;51.364;12.384;2022-08-19T07:51:44;20.40;99.90
14934;DHT22;7560;51.364;12.384;2022-08-19T07:56:46;20.50;99.90
14934;DHT22;7560;51.364;12.384;2022-08-19T08:01:48;20.50;99.90
14934;DHT22;7560;51.364;12.384;2022-08-19T08:06:52;20.60;99.90
14934;DHT22;7560;51.364;12.384;2022-08-19T08:12:23;20.40;99.90
14934;DHT22;7560;51.364;12.384;2022-08-19T08:17:35;20.50;99.90
14934;DHT22;7560;51.364;12.384;2022-08-19T08:22:52;20.50;99.90
14934;DHT22;7560;51.364;12.384;2022-08-19T08:28:12;20.60;99.90
14934;DHT22;7560;51.364;12.384;2022-08-19T08:33:24;20.90;99.90
14934;DHT22;7560;51.364;12.384;2022-08-19T08:38:37;20.80;99.90
14934;DHT22;7560;51.364;12.384;2022-08-19T08:43:45;20.80;99.90
14934;DHT22;7560;51.364;12.384;2022-08-19T08:48:56;20.70;99.90
14934;DHT22;7560;51.364;12.384;2022-08-19T08:54:02;20.70;99.90
14934;DHT22;7560;51.364;12.384;2022-08-19T08:59:21;20.80;99.90
14934;DHT22;7560;51.364;12.384;2022-08-19T09:04:23;20.70;99.90
14934;DHT22;7560;51.364;12.384;2022-08-19T09:09:34;20.80;99.90
14934;DHT22;7560;51.364;12.384;2022-08-19T09:20:02;20.90;99.90
14934;DHT22;7560;51.364;12.384;2022-08-19T09:25:07;21.60;99.90
14934;DHT22;7560;51.364;12.384;2022-08-19T09:30:14;21.70;99.90
14934;DHT22;7560;51.364;12.384;2022-08-19T09:35:16;22.10;99.90
14934;DHT22;7560;51.364;12.384;2022-08-19T09:40:18;21.60;99.90
14934;DHT22;7560;51.364;12.384;2022-08-19T09:45:25;21.60;99.90
14934;DHT22;7560;51.364;12.384;2022-08-19T09:50:27;21.30;99.90
14934;DHT22;7560;51.364;12.384;2022-08-19T09:55:28;21.10;99.90
14934;DHT22;7560;51.364;12.384;2022-08-19T10:00:32;21.30;99.90
14934;DHT22;7560;51.364;12.384;2022-08-19T10:05:34;21.20;99.90
14934;DHT22;7560;51.364;12.384;2022-08-19T10:10:56;21.50;99.90
14934;DHT22;7560;51.364;12.384;2022-08-19T10:16:05;21.50;99.90
14934;DHT22;7560;51.364;12.384;2022-08-19T10:21:13;21.60;99.90
14934;DHT22;7560;51.364;12.384;2022-08-19T10:26:21;21.60;99.90
14934;DHT22;7560;51.364;12.384;2022-08-19T10:31:30;22.00;99.90
14934;DHT22;7560;51.364;12.384;2022-08-19T10:36:52;22.10;99.90
14934;DHT22;7560;51.364;12.384;2022-08-19T10:41:57;22.40;99.90
14934;DHT22;7560;51.364;12.384;2022-08-19T10:46:59;22.30;99.90
14934;DHT22;7560;51.364;12.384;2022-08-19T10:52:01;22.40;99.90
14934;DHT22;7560;51.364;12.384;2022-08-19T10:57:32;22.30;99.90
14934;DHT22;7560;51.364;12.384;2022-08-19T11:02:54;22.20;99.90
14934;DHT22;7560;51.364;12.384;2022-08-19T11:07:57;21.90;99.90
14934;DHT22;7560;51.364;12.384;2022-08-19T11:13:01;22.10;99.90
14934;DHT22;7560;51.364;12.384;2022-08-19T11:18:03;22.10;99.90
14934;DHT22;7560;51.364;12.384;2022-08-19T11:23:13;22.00;99.90
14934;DHT22;7560;51.364;12.384;2022-08-19T11:28:15;22.30;99.90
14934;DHT22;7560;51.364;12.384;2022-08-19T11:33:17;22.10;99.90
14934;DHT22;7560;51.364;12.384;2022-08-19T11:38:19;22.70;99.90
14934;DHT22;7560;51.364;12.384;2022-08-19T11:43:21;22.70;99.90
14934;DHT22;7560;51.364;12.384;2022-08-19T11:48:24;23.30;99.90
14934;DHT22;7560;51.364;12.384;2022-08-19T11:53:26;23.10;99.90
14934;DHT22;7560;51.364;12.384;2022-08-19T11:58:28;23.40;99.90
14934;DHT22;7560;51.364;12.384;2022-08-19T12:03:33;23.20;99.90
14934;DHT22;7560;51.364;12.384;2022-08-19T12:08:35;23.50;99.90
14934;DHT22;7560;51.364;12.384;2022-08-19T12:13:38;24.00;99.90
14934;DHT22;7560;51.364;12.384;2022-08-19T12:18:41;23.40;99.90
14934;DHT22;7560;51.364;12.384;2022-08-19T12:23:45;23.00;99.90
14934;DHT22;7560;51.364;12.384;2022-08-19T12:28:47;23.90;99.90
14934;DHT22;7560;51.364;12.384;2022-08-19T12:33:49;23.10;99.90
14934;DHT22;7560;51.364;12.384;2022-08-19T12:38:52;23.10;99.90
14934;DHT22;7560;51.364;12.384;2022-08-19T12:43:54;23.70;99.90
14934;DHT22;7560;51.364;12.384;2022-08-19T12:48:56;23.40;99.90
14934;DHT22;7560;51.364;12.384;2022-08-19T12:53:59;23.90;99.90
14934;DHT22;7560;51.364;12.384;2022-08-19T12:59:02;23.90;99.90
14934;DHT22;7560;51.364;12.384;2022-08-19T13:04:04;24.70;99.90
14934;DHT22;7560;51.364;12.384;2022-08-19T13:09:06;24.90;99.90
14934;DHT22;7560;51.364;12.384;2022-08-19T13:14:08;24.60;99.90
14934;DHT22;7560;51.364;12.384;2022-08-19T13:19:10;25.10;99.90
14934;DHT22;7560;51.364;12.384;2022-08-19T13:24:13;25.10;99.90
14934;DHT22;7560;51.364;12.384;2022-08-19T13:29:15;24.50;99.90
14934;DHT22;7560;51.364;12.384;2022-08-19T13:34:35;24.10;99.90
14934;DHT22;7560;51.364;12.384;2022-08-19T13:39:38;24.40;99.90
14934;DHT22;7560;51.364;12.384;2022-08-19T13:44:40;23.90;99.90
14934;DHT22;7560;51.364;12.384;2022-08-19T13:49:42;23.90;99.90
14934;DHT22;7560;51.364;12.384;2022-08-19T13:54:44;23.90;99.90
14934;DHT22;7560;51.364;12.384;2022-08-19T13:59:45;23.90;99.90
14934;DHT22;7560;51.364;12.384;2022-08-19T14:04:47;23.70;99.90
14934;DHT22;7560;51.364;12.384;2022-08-19T14:09:50;23.60;99.90
14934;DHT22;7560;51.364;12.384;2022-08-19T14:14:51;23.60;99.90
14934;DHT22;7560;51.364;12.384;2022-08-19T14:20:00;23.60;99.90
14934;DHT22;7560;51.364;12.384;2022-08-19T14:25:14;23.60;99.90
14934;DHT22;7560;51.364;12.384;2022-08-19T14:30:22;23.50;99.90
14934;DHT22;7560;51.364;12.384;2022-08-19T14:35:25;23.60;99.90
14934;DHT22;7560;51.364;12.384;2022-08-19T14:40:29;23.60;99.90
14934;DHT22;7560;51.364;12.384;2022-08-19T14:45:34;23.50;99.90
14934;DHT22;7560;51.364;12.384;2022-08-19T14:50:37;23.80;99.90
14934;DHT22;7560;51.364;12.384;2022-08-19T14:55:43;24.10;99.90
14934;DHT22;7560;51.364;12.384;2022-08-19T15:00:45;24.10;99.90
14934;DHT22;7560;51.364;12.384;2022-08-19T15:05:49;23.90;99.90
14934;DHT22;7560;51.364;12.384;2022-08-19T15:10:51;24.00;99.90
14934;DHT22;7560;51.364;12.384;2022-08-19T15:15:54;23.90;99.90
14934;DHT22;7560;51.364;12.384;2022-08-19T15:20:55;23.80;99.90
14934;DHT22;7560;51.364;12.384;2022-08-19T15:26:12;23.60;99.90
14934;DHT22;7560;51.364;12.384;2022-08-19T15:31:21;23.50;99.90
14934;DHT22;7560;51.364;12.384;2022-08-19T15:36:29;23.40;99.90
14934;DHT22;7560;51.364;12.384;2022-08-19T15:41:31;23.30;99.90
14934;DHT22;7560;51.364;12.384;2022-08-19T15:46:35;23.30;99.90
14934;DHT22;7560;51.364;12.384;2022-08-19T15:51:40;23.20;99.90
14934;DHT22;7560;51.364;12.384;2022-08-19T15:56:43;23.00;99.90
14934;DHT22;7560;51.364;12.384;2022-08-19T16:02:03;23.10;99.90
14934;DHT22;7560;51.364;12.384;2022-08-19T16:07:32;23.40;99.90
14934;DHT22;7560;51.364;12.384;2022-08-19T16:12:34;23.20;99.90
14934;DHT22;7560;51.364;12.384;2022-08-19T16:17:36;23.30;99.90
14934;DHT22;7560;51.364;12.384;2022-08-19T16:22:39;23.00;99.90
14934;DHT22;7560;51.364;12.384;2022-08-19T16:27:41;23.10;99.90
14934;DHT22;7560;51.364;12.384;2022-08-19T16:33:02;22.70;99.90
14934;DHT22;7560;51.364;12.384;2022-08-19T16:38:04;22.40;99.90
14934;DHT22;7560;51.364;12.384;2022-08-19T16:43:07;22.40;99.90
14934;DHT22;7560;51.364;12.384;2022-08-19T16:48:10;22.30;99.90
14934;DHT22;7560;51.364;12.384;2022-08-19T16:53:14;22.50;99.90
14934;DHT22;7560;51.364;12.384;2022-08-19T16:58:16;22.60;99.90
14934;DHT22;7560;51.364;12.384;2022-08-19T17:03:29;22.50;99.90
14934;DHT22;7560;51.364;12.384;2022-08-19T17:08:37;22.50;99.90
14934;DHT22;7560;51.364;12.384;2022-08-19T17:13:39;22.50;99.90
14934;DHT22;7560;51.364;12.384;2022-08-19T17:18:43;22.40;99.90
14934;DHT22;7560;51.364;12.384;2022-08-19T17:23:45;22.20;99.90
14934;DHT22;7560;51.364;12.384;2022-08-19T17:28:50;22.20;99.90
14934;DHT22;7560;51.364;12.384;2022-08-19T17:33:52;22.30;99.90
14934;DHT22;7560;51.364;12.384;2022-08-19T17:38:57;22.40;99.90
14934;DHT22;7560;51.364;12.384;2022-08-19T17:44:02;22.10;99.90
14934;DHT22;7560;51.364;12.384;2022-08-19T17:49:04;22.00;99.90
14934;DHT22;7560;51.364;12.384;2022-08-19T17:54:07;22.10;99.90
14934;DHT22;7560;51.364;12.384;2022-08-19T17:59:09;22.20;99.90
14934;DHT22;7560;51.364;12.384;2022-08-19T18:04:15;22.20;99.90
14934;DHT22;7560;51.364;12.384;2022-08-19T18:09:17;22.10;99.90
14934;DHT22;7560;51.364;12.384;2022-08-19T18:14:23;22.10;99.90
14934;DHT22;7560;51.364;12.384;2022-08-19T18:19:38;21.90;99.90
14934;DHT22;7560;51.364;12.384;2022-08-19T18:24:43;21.80;99.90
14934;DHT22;7560;51.364;12.384;2022-08-19T18:29:46;21.80;99.90
14934;DHT22;7560;51.364;12.384;2022-08-19T18:34:48;21.80;99.90
14934;DHT22;7560;51.364;12.384;2022-08-19T18:39:50;21.70;99.90
14934;DHT22;7560;51.364;12.384;2022-08-19T18:45:11;21.60;99.90
14934;DHT22;7560;51.364;12.384;2022-08-19T18:50:31;21.60;99.90
14934;DHT22;7560;51.364;12.384;2022-08-19T18:55:33;21.60;99.90
14934;DHT22;7560;51.364;12.384;2022-08-19T19:00:35;21.70;99.90
14934;DHT22;7560;51.364;12.384;2022-08-19T19:05:37;21.70;99.90
14934;DHT22;7560;51.364;12.384;2022-08-19T19:10:40;21.70;99.90
14934;DHT22;7560;51.364;12.384;2022-08-19T19:15:42;21.70;99.90
14934;DHT22;7560;51.364;12.384;2022-08-19T19:20:44;21.70;99.90
14934;DHT22;7560;51.364;12.384;2022-08-19T19:25:46;21.60;99.90
14934;DHT22;7560;51.364;12.384;2022-08-19T19:30:53;21.60;99.90
14934;DHT22;7560;51.364;12.384;2022-08-19T19:35:58;21.50;99.90
14934;DHT22;7560;51.364;12.384;2022-08-19T19:41:01;21.60;99.90
14934;DHT22;7560;51.364;12.384;2022-08-19T19:46:02;21.50;99.90
14934;DHT22;7560;51.364;12.384;2022-08-19T19:51:08;21.50;99.90
14934;DHT22;7560;51.364;12.384;2022-08-19T19:56:10;21.50;99.90
14934;DHT22;7560;51.364;12.384;2022-08-19T20:01:13;21.40;99.90
14934;DHT22;7560;51.364;12.384;2022-08-19T20:06:24;21.40;99.90
14934;DHT22;7560;51.364;12.384;2022-08-19T20:11:34;21.40;99.90
14934;DHT22;7560;51.364;12.384;2022-08-19T20:16:37;21.40;99.90
14934;DHT22;7560;51.364;12.384;2022-08-19T20:21:41;21.40;99.90
14934;DHT22;7560;51.364;12.384;2022-08-19T20:26:52;21.50;99.90
14934;DHT22;7560;51.364;12.384;2022-08-19T20:31:54;21.50;99.90
14934;DHT22;7560;51.364;12.384;2022-08-19T20:36:59;21.50;99.90
14934;DHT22;7560;51.364;12.384;2022-08-19T20:42:01;21.40;99.90
14934;DHT22;7560;51.364;12.384;2022-08-19T20:47:03;21.40;99.90
14934;DHT22;7560;51.364;12.384;2022-08-19T20:52:05;21.40;99.90
14934;DHT22;7560;51.364;12.384;2022-08-19T20:57:07;21.40;99.90
14934;DHT22;7560;51.364;12.384;2022-08-19T21:02:09;21.30;99.90
14934;DHT22;7560;51.364;12.384;2022-08-19T21:07:11;21.30;99.90
14934;DHT22;7560;51.364;12.384;2022-08-19T21:12:13;21.30;99.90
14934;DHT22;7560;51.364;12.384;2022-08-19T21:17:15;21.10;99.90
14934;DHT22;7560;51.364;12.384;2022-08-19T21:22:17;21.00;99.90
14934;DHT22;7560;51.364;12.384;2022-08-19T21:27:22;21.00;99.90
14934;DHT22;7560;51.364;12.384;2022-08-19T21:32:24;21.00;99.90
14934;DHT22;7560;51.364;12.384;2022-08-19T21:37:26;21.10;99.90
14934;DHT22;7560;51.364;12.384;2022-08-19T21:42:28;21.10;99.90
14934;DHT22;7560;51.364;12.384;2022-08-19T21:47:30;21.10;99.90
14934;DHT22;7560;51.364;12.384;2022-08-19T21:52:32;21.10;99.90
14934;DHT22;7560;51.364;12.384;2022-08-19T21:57:35;21.10;99.90
14934;DHT22;7560;51.364;12.384;2022-08-19T22:02:37;21.10;99.90
14934;DHT22;7560;51.364;12.384;2022-08-19T22:07:39;21.00;99.90
14934;DHT22;7560;51.364;12.384;2022-08-19T22:12:44;21.00;99.90
14934;DHT22;7560;51.364;12.384;2022-08-19T22:17:52;21.00;99.90
14934;DHT22;7560;51.364;12.384;2022-08-19T22:23:00;21.00;99.90
14934;DHT22;7560;51.364;12.384;2022-08-19T22:28:05;21.00;99.90
14934;DHT22;7560;51.364;12.384;2022-08-19T22:33:16;20.90;99.90
14934;DHT22;7560;51.364;12.384;2022-08-19T22:38:18;20.90;99.90
14934;DHT22;7560;51.364;12.384;2022-08-19T22:43:23;20.90;99.90
14934;DHT22;7560;51.364;12.384;2022-08-19T22:48:27;20.90;99.90
14934;DHT22;7560;51.364;12.384;2022-08-19T22:53:32;20.80;99.90
14934;DHT22;7560;51.364;12.384;2022-08-19T22:58:34;20.80;99.90
14934;DHT22;7560;51.364;12.384;2022-08-19T23:03:36;20.80;99.90
14934;DHT22;7560;51.364;12.384;2022-08-19T23:08:38;20.70;99.90
14934;DHT22;7560;51.364;12.384;2022-08-19T23:13:40;20.80;99.90
14934;DHT22;7560;51.364;12.384;2022-08-19T23:18:42;20.70;99.90
14934;DHT22;7560;51.364;12.384;2022-08-19T23:23:45;20.70;99.90
14934;DHT22;7560;51.364;12.384;2022-08-19T23:28:47;20.70;99.90
14934;DHT22;7560;51.364;12.384;2022-08-19T23:34:08;20.70;99.90
14934;DHT22;7560;51.364;12.384;2022-08-19T23:39:10;20.60;99.90
14934;DHT22;7560;51.364;12.384;2022-08-19T23:44:11;20.50;99.90
14934;DHT22;7560;51.364;12.384;2022-08-19T23:49:15;20.40;99.90
14934;DHT22;7560;51.364;12.384;2022-08-19T23:54:17;20.40;99.90
14934;DHT22;7560;51.364;12.384;2022-08-19T23:59:19;20.30;99.90
